HRYR/KGL METAR and TAF weather

Enter ICAO airport designator
Station Type Date Time Source
HRYR METAR 2022/07/03 15:00 UTC NOAA

HRYR 031500Z 13006KT 100V190 9999 FEW026 25/09 Q1021 NOSIG


Station Type Date Time Source
HRYR Decoded METAR 2022/07/03 15:00 UTC NOAA

Kigali, Rwanda (HRYR) 01-58S 030-07E 1497M
Jul 03, 2022 - 11:00 AM EDT / 2022.07.03 1500 UTC
Wind: from the SE (130 degrees) at 7 MPH (6 KT) (direction variable):0
Visibility: greater than 7 mile(s):0
Sky conditions: mostly clear
Temperature: 77 F (25 C)
Dew Point: 48 F (9 C)
Relative Humidity: 36%
Pressure (altimeter): 30.15 in. Hg (1021 hPa)
ob: HRYR 031500Z 13006KT 100V190 9999 FEW026 25/09 Q1021 NOSIG
cycle: 15

Station Type Date Time Source
HRYR TAF 2022/07/03 12:03 UTC NOAA

TAF TAF HRYR 031100Z 0312/0418 18010KT 9999 FEW025
BECMG 0320/0323 28004KT
BECMG 0409/0412 14012KT

Example: see airport list